sensor_id;sensor_type;location;lat;lon;timestamp;P1;durP1;ratioP1;P2;durP2;ratioP2
795;SDS011;381;48.770;9.188;2022-12-11T00:05:04;20.97;;;18.77;;
795;SDS011;381;48.770;9.188;2022-12-11T00:10:16;21.57;;;19.37;;
795;SDS011;381;48.770;9.188;2022-12-11T00:15:19;19.70;;;17.80;;
795;SDS011;381;48.770;9.188;2022-12-11T00:20:21;20.37;;;18.27;;
795;SDS011;381;48.770;9.188;2022-12-11T00:25:24;20.00;;;18.00;;
795;SDS011;381;48.770;9.188;2022-12-11T00:30:26;18.07;;;16.40;;
795;SDS011;381;48.770;9.188;2022-12-11T00:35:28;18.60;;;16.80;;
795;SDS011;381;48.770;9.188;2022-12-11T00:40:33;18.57;;;16.77;;
795;SDS011;381;48.770;9.188;2022-12-11T00:45:35;19.50;;;17.60;;
795;SDS011;381;48.770;9.188;2022-12-11T00:50:38;19.93;;;17.93;;
795;SDS011;381;48.770;9.188;2022-12-11T00:55:42;18.90;;;17.10;;
795;SDS011;381;48.770;9.188;2022-12-11T01:00:44;18.50;;;16.70;;
795;SDS011;381;48.770;9.188;2022-12-11T01:05:51;19.13;;;17.23;;
795;SDS011;381;48.770;9.188;2022-12-11T01:11:00;20.90;;;18.90;;
795;SDS011;381;48.770;9.188;2022-12-11T01:16:05;21.93;;;19.73;;
795;SDS011;381;48.770;9.188;2022-12-11T01:21:09;23.13;;;20.90;;
795;SDS011;381;48.770;9.188;2022-12-11T01:26:14;22.90;;;19.20;;
795;SDS011;381;48.770;9.188;2022-12-11T01:31:17;20.77;;;18.60;;
795;SDS011;381;48.770;9.188;2022-12-11T01:36:20;20.97;;;18.97;;
795;SDS011;381;48.770;9.188;2022-12-11T01:41:25;22.23;;;20.03;;
795;SDS011;381;48.770;9.188;2022-12-11T01:46:27;20.87;;;18.97;;
795;SDS011;381;48.770;9.188;2022-12-11T01:51:31;23.73;;;21.43;;
795;SDS011;381;48.770;9.188;2022-12-11T01:56:37;23.33;;;21.03;;
795;SDS011;381;48.770;9.188;2022-12-11T02:01:43;23.83;;;21.47;;
795;SDS011;381;48.770;9.188;2022-12-11T02:06:50;22.93;;;20.53;;
795;SDS011;381;48.770;9.188;2022-12-11T02:11:58;20.63;;;18.63;;
795;SDS011;381;48.770;9.188;2022-12-11T02:17:05;20.83;;;18.73;;
795;SDS011;381;48.770;9.188;2022-12-11T02:22:12;19.97;;;18.00;;
795;SDS011;381;48.770;9.188;2022-12-11T02:27:26;17.77;;;16.10;;
795;SDS011;381;48.770;9.188;2022-12-11T02:32:35;17.33;;;14.33;;
795;SDS011;381;48.770;9.188;2022-12-11T02:37:41;16.70;;;15.10;;
795;SDS011;381;48.770;9.188;2022-12-11T02:42:45;15.70;;;14.20;;
795;SDS011;381;48.770;9.188;2022-12-11T02:47:50;12.87;;;11.67;;
795;SDS011;381;48.770;9.188;2022-12-11T02:52:53;14.53;;;13.03;;
795;SDS011;381;48.770;9.188;2022-12-11T02:57:59;17.17;;;15.57;;
795;SDS011;381;48.770;9.188;2022-12-11T03:03:06;19.07;;;17.27;;
795;SDS011;381;48.770;9.188;2022-12-11T03:08:08;16.93;;;15.33;;
795;SDS011;381;48.770;9.188;2022-12-11T03:13:18;17.20;;;15.60;;
795;SDS011;381;48.770;9.188;2022-12-11T03:18:25;18.97;;;17.17;;
795;SDS011;381;48.770;9.188;2022-12-11T03:23:31;17.80;;;16.10;;
795;SDS011;381;48.770;9.188;2022-12-11T03:28:39;17.37;;;15.70;;
795;SDS011;381;48.770;9.188;2022-12-11T03:33:48;19.33;;;17.53;;
795;SDS011;381;48.770;9.188;2022-12-11T03:38:55;18.60;;;16.60;;
795;SDS011;381;48.770;9.188;2022-12-11T03:44:00;17.87;;;16.27;;
795;SDS011;381;48.770;9.188;2022-12-11T03:49:04;17.77;;;16.07;;
795;SDS011;381;48.770;9.188;2022-12-11T03:54:09;21.20;;;19.10;;
795;SDS011;381;48.770;9.188;2022-12-11T03:59:11;21.07;;;19.07;;
795;SDS011;381;48.770;9.188;2022-12-11T04:04:15;14.07;;;12.67;;
795;SDS011;381;48.770;9.188;2022-12-11T04:09:17;15.63;;;14.17;;
795;SDS011;381;48.770;9.188;2022-12-11T04:14:19;15.97;;;14.47;;
795;SDS011;381;48.770;9.188;2022-12-11T04:19:40;16.80;;;15.20;;
795;SDS011;381;48.770;9.188;2022-12-11T04:25:00;16.57;;;14.97;;
795;SDS011;381;48.770;9.188;2022-12-11T04:30:03;15.77;;;14.27;;
795;SDS011;381;48.770;9.188;2022-12-11T04:35:08;16.00;;;14.50;;
795;SDS011;381;48.770;9.188;2022-12-11T04:40:11;15.83;;;14.33;;
795;SDS011;381;48.770;9.188;2022-12-11T04:45:16;15.40;;;14.00;;
795;SDS011;381;48.770;9.188;2022-12-11T04:50:19;15.97;;;14.40;;
795;SDS011;381;48.770;9.188;2022-12-11T04:55:21;15.27;;;13.87;;
795;SDS011;381;48.770;9.188;2022-12-11T05:00:24;16.17;;;14.60;;
795;SDS011;381;48.770;9.188;2022-12-11T05:05:27;16.80;;;15.10;;
795;SDS011;381;48.770;9.188;2022-12-11T05:10:30;16.23;;;14.70;;
795;SDS011;381;48.770;9.188;2022-12-11T05:15:32;15.77;;;14.33;;
795;SDS011;381;48.770;9.188;2022-12-11T05:20:35;15.03;;;13.63;;
795;SDS011;381;48.770;9.188;2022-12-11T05:25:37;15.53;;;14.03;;
795;SDS011;381;48.770;9.188;2022-12-11T05:30:39;16.27;;;14.67;;
795;SDS011;381;48.770;9.188;2022-12-11T05:35:47;17.30;;;15.50;;
795;SDS011;381;48.770;9.188;2022-12-11T05:40:54;16.03;;;14.00;;
795;SDS011;381;48.770;9.188;2022-12-11T05:46:04;16.13;;;14.63;;
795;SDS011;381;48.770;9.188;2022-12-11T05:51:09;16.93;;;15.23;;
795;SDS011;381;48.770;9.188;2022-12-11T05:56:12;17.67;;;15.90;;
795;SDS011;381;48.770;9.188;2022-12-11T06:01:17;18.33;;;16.63;;
795;SDS011;381;48.770;9.188;2022-12-11T06:06:22;17.57;;;15.77;;
795;SDS011;381;48.770;9.188;2022-12-11T06:11:26;17.67;;;15.87;;
795;SDS011;381;48.770;9.188;2022-12-11T06:16:29;18.10;;;16.23;;
795;SDS011;381;48.770;9.188;2022-12-11T06:21:33;17.47;;;15.67;;
795;SDS011;381;48.770;9.188;2022-12-11T06:26:35;16.80;;;15.10;;
795;SDS011;381;48.770;9.188;2022-12-11T06:31:37;17.50;;;15.70;;
795;SDS011;381;48.770;9.188;2022-12-11T06:36:40;17.13;;;15.37;;
795;SDS011;381;48.770;9.188;2022-12-11T06:41:42;16.00;;;14.50;;
795;SDS011;381;48.770;9.188;2022-12-11T06:46:44;17.43;;;15.70;;
795;SDS011;381;48.770;9.188;2022-12-11T06:51:48;17.80;;;16.10;;
795;SDS011;381;48.770;9.188;2022-12-11T06:56:50;18.30;;;16.50;;
795;SDS011;381;48.770;9.188;2022-12-11T07:01:52;17.97;;;16.17;;
795;SDS011;381;48.770;9.188;2022-12-11T07:06:55;18.20;;;16.03;;
795;SDS011;381;48.770;9.188;2022-12-11T07:11:57;19.23;;;17.23;;
795;SDS011;381;48.770;9.188;2022-12-11T07:16:59;19.70;;;17.70;;
795;SDS011;381;48.770;9.188;2022-12-11T07:22:03;19.60;;;17.57;;
795;SDS011;381;48.770;9.188;2022-12-11T07:27:05;17.50;;;15.80;;
795;SDS011;381;48.770;9.188;2022-12-11T07:32:07;20.17;;;18.13;;
795;SDS011;381;48.770;9.188;2022-12-11T07:37:11;19.87;;;17.83;;
795;SDS011;381;48.770;9.188;2022-12-11T07:42:13;20.43;;;18.40;;
795;SDS011;381;48.770;9.188;2022-12-11T07:47:15;21.33;;;19.23;;
795;SDS011;381;48.770;9.188;2022-12-11T07:52:18;21.77;;;19.60;;
795;SDS011;381;48.770;9.188;2022-12-11T07:57:20;21.03;;;18.93;;
795;SDS011;381;48.770;9.188;2022-12-11T08:02:22;20.77;;;18.63;;
795;SDS011;381;48.770;9.188;2022-12-11T08:07:26;25.70;;;22.90;;
795;SDS011;381;48.770;9.188;2022-12-11T08:12:28;22.03;;;19.83;;
795;SDS011;381;48.770;9.188;2022-12-11T08:17:33;22.43;;;20.13;;
795;SDS011;381;48.770;9.188;2022-12-11T08:22:36;22.47;;;20.10;;
795;SDS011;381;48.770;9.188;2022-12-11T08:27:38;21.93;;;19.63;;
795;SDS011;381;48.770;9.188;2022-12-11T08:32:40;20.77;;;18.57;;
795;SDS011;381;48.770;9.188;2022-12-11T08:37:44;21.33;;;19.30;;
795;SDS011;381;48.770;9.188;2022-12-11T08:42:46;23.03;;;18.10;;
795;SDS011;381;48.770;9.188;2022-12-11T08:47:49;20.80;;;18.60;;
795;SDS011;381;48.770;9.188;2022-12-11T08:52:54;23.07;;;18.73;;
795;SDS011;381;48.770;9.188;2022-12-11T08:57:56;22.20;;;19.87;;
795;SDS011;381;48.770;9.188;2022-12-11T09:02:58;20.73;;;18.73;;
795;SDS011;381;48.770;9.188;2022-12-11T09:08:02;19.47;;;17.47;;
795;SDS011;381;48.770;9.188;2022-12-11T09:13:04;21.00;;;18.70;;
795;SDS011;381;48.770;9.188;2022-12-11T09:18:06;22.83;;;20.33;;
795;SDS011;381;48.770;9.188;2022-12-11T09:23:10;20.90;;;18.80;;
795;SDS011;381;48.770;9.188;2022-12-11T09:28:12;20.97;;;18.80;;
795;SDS011;381;48.770;9.188;2022-12-11T09:33:15;21.80;;;18.47;;
795;SDS011;381;48.770;9.188;2022-12-11T09:38:19;20.47;;;18.20;;
795;SDS011;381;48.770;9.188;2022-12-11T09:43:25;20.33;;;18.00;;
795;SDS011;381;48.770;9.188;2022-12-11T09:48:34;18.63;;;16.77;;
795;SDS011;381;48.770;9.188;2022-12-11T09:53:40;19.43;;;17.50;;
795;SDS011;381;48.770;9.188;2022-12-11T09:58:46;19.63;;;17.63;;
795;SDS011;381;48.770;9.188;2022-12-11T10:04:02;18.87;;;17.07;;
795;SDS011;381;48.770;9.188;2022-12-11T10:09:18;18.07;;;16.17;;
795;SDS011;381;48.770;9.188;2022-12-11T10:14:30;17.70;;;16.00;;
795;SDS011;381;48.770;9.188;2022-12-11T10:19:39;20.67;;;18.57;;
795;SDS011;381;48.770;9.188;2022-12-11T10:24:44;18.83;;;16.93;;
795;SDS011;381;48.770;9.188;2022-12-11T10:29:52;18.57;;;16.67;;
795;SDS011;381;48.770;9.188;2022-12-11T10:35:01;16.40;;;14.80;;
795;SDS011;381;48.770;9.188;2022-12-11T10:40:08;17.60;;;15.90;;
795;SDS011;381;48.770;9.188;2022-12-11T10:45:14;22.33;;;17.17;;
795;SDS011;381;48.770;9.188;2022-12-11T10:50:21;21.93;;;19.60;;
795;SDS011;381;48.770;9.188;2022-12-11T10:55:26;22.23;;;19.90;;
795;SDS011;381;48.770;9.188;2022-12-11T11:00:32;21.20;;;19.00;;
795;SDS011;381;48.770;9.188;2022-12-11T11:05:37;23.10;;;20.60;;
795;SDS011;381;48.770;9.188;2022-12-11T11:10:50;21.20;;;19.00;;
795;SDS011;381;48.770;9.188;2022-12-11T11:15:57;20.97;;;18.33;;
795;SDS011;381;48.770;9.188;2022-12-11T11:21:01;26.97;;;24.17;;
795;SDS011;381;48.770;9.188;2022-12-11T11:26:06;22.43;;;20.03;;
795;SDS011;381;48.770;9.188;2022-12-11T11:31:10;24.17;;;21.30;;
795;SDS011;381;48.770;9.188;2022-12-11T11:36:19;22.90;;;20.60;;
795;SDS011;381;48.770;9.188;2022-12-11T11:41:24;22.77;;;20.40;;
795;SDS011;381;48.770;9.188;2022-12-11T11:46:32;23.23;;;20.47;;
795;SDS011;381;48.770;9.188;2022-12-11T11:51:39;23.33;;;21.00;;
795;SDS011;381;48.770;9.188;2022-12-11T11:56:46;21.27;;;19.17;;
795;SDS011;381;48.770;9.188;2022-12-11T12:01:53;22.43;;;19.60;;
795;SDS011;381;48.770;9.188;2022-12-11T12:07:06;24.20;;;21.07;;
795;SDS011;381;48.770;9.188;2022-12-11T12:12:21;21.93;;;19.60;;
795;SDS011;381;48.770;9.188;2022-12-11T12:17:34;21.90;;;19.77;;
795;SDS011;381;48.770;9.188;2022-12-11T12:22:50;22.37;;;20.17;;
795;SDS011;381;48.770;9.188;2022-12-11T12:28:04;21.00;;;18.80;;
795;SDS011;381;48.770;9.188;2022-12-11T12:33:23;23.30;;;20.80;;
795;SDS011;381;48.770;9.188;2022-12-11T12:38:39;23.90;;;20.17;;
795;SDS011;381;48.770;9.188;2022-12-11T12:44:05;24.73;;;22.23;;
795;SDS011;381;48.770;9.188;2022-12-11T12:49:15;21.80;;;19.70;;
795;SDS011;381;48.770;9.188;2022-12-11T12:54:20;24.43;;;21.60;;
795;SDS011;381;48.770;9.188;2022-12-11T12:59:25;23.83;;;21.30;;
795;SDS011;381;48.770;9.188;2022-12-11T13:04:33;25.77;;;23.03;;
795;SDS011;381;48.770;9.188;2022-12-11T13:09:40;25.20;;;22.60;;
795;SDS011;381;48.770;9.188;2022-12-11T13:14:43;24.40;;;21.97;;
795;SDS011;381;48.770;9.188;2022-12-11T13:20:09;25.80;;;23.00;;
795;SDS011;381;48.770;9.188;2022-12-11T13:25:19;22.10;;;19.70;;
795;SDS011;381;48.770;9.188;2022-12-11T13:30:28;23.77;;;21.10;;
795;SDS011;381;48.770;9.188;2022-12-11T13:35:30;25.10;;;22.40;;
795;SDS011;381;48.770;9.188;2022-12-11T13:40:36;25.03;;;22.50;;
795;SDS011;381;48.770;9.188;2022-12-11T13:45:45;27.23;;;24.37;;
795;SDS011;381;48.770;9.188;2022-12-11T13:50:49;25.40;;;22.80;;
795;SDS011;381;48.770;9.188;2022-12-11T13:55:56;24.07;;;21.60;;
795;SDS011;381;48.770;9.188;2022-12-11T14:01:03;22.67;;;20.43;;
795;SDS011;381;48.770;9.188;2022-12-11T14:06:10;26.70;;;23.80;;
795;SDS011;381;48.770;9.188;2022-12-11T14:11:14;26.70;;;23.80;;
795;SDS011;381;48.770;9.188;2022-12-11T14:16:26;28.07;;;25.03;;
795;SDS011;381;48.770;9.188;2022-12-11T14:21:29;27.73;;;24.00;;
795;SDS011;381;48.770;9.188;2022-12-11T14:26:32;27.70;;;24.53;;
795;SDS011;381;48.770;9.188;2022-12-11T14:31:39;28.07;;;24.83;;
795;SDS011;381;48.770;9.188;2022-12-11T14:36:43;27.17;;;23.90;;
795;SDS011;381;48.770;9.188;2022-12-11T14:41:47;29.20;;;25.30;;
795;SDS011;381;48.770;9.188;2022-12-11T14:46:56;31.13;;;26.77;;
795;SDS011;381;48.770;9.188;2022-12-11T14:52:00;28.83;;;25.73;;
795;SDS011;381;48.770;9.188;2022-12-11T14:57:04;28.60;;;24.93;;
795;SDS011;381;48.770;9.188;2022-12-11T15:02:20;29.13;;;24.53;;
795;SDS011;381;48.770;9.188;2022-12-11T15:07:26;27.67;;;24.77;;
795;SDS011;381;48.770;9.188;2022-12-11T15:12:29;30.27;;;23.97;;
795;SDS011;381;48.770;9.188;2022-12-11T15:17:33;27.50;;;24.37;;
795;SDS011;381;48.770;9.188;2022-12-11T15:22:36;25.57;;;22.80;;
795;SDS011;381;48.770;9.188;2022-12-11T15:27:48;24.60;;;21.90;;
795;SDS011;381;48.770;9.188;2022-12-11T15:33:01;21.13;;;17.90;;
795;SDS011;381;48.770;9.188;2022-12-11T15:38:05;25.43;;;22.70;;
795;SDS011;381;48.770;9.188;2022-12-11T15:43:07;24.50;;;21.70;;
795;SDS011;381;48.770;9.188;2022-12-11T15:48:10;28.73;;;24.50;;
795;SDS011;381;48.770;9.188;2022-12-11T15:53:12;26.10;;;23.40;;
795;SDS011;381;48.770;9.188;2022-12-11T15:58:17;27.90;;;23.80;;
795;SDS011;381;48.770;9.188;2022-12-11T16:03:22;31.97;;;26.20;;
795;SDS011;381;48.770;9.188;2022-12-11T16:08:25;28.77;;;24.77;;
795;SDS011;381;48.770;9.188;2022-12-11T16:13:27;28.70;;;25.23;;
795;SDS011;381;48.770;9.188;2022-12-11T16:18:30;30.17;;;25.97;;
795;SDS011;381;48.770;9.188;2022-12-11T16:23:32;30.80;;;26.97;;
795;SDS011;381;48.770;9.188;2022-12-11T16:28:34;30.53;;;26.80;;
795;SDS011;381;48.770;9.188;2022-12-11T16:33:38;34.37;;;28.40;;
795;SDS011;381;48.770;9.188;2022-12-11T16:38:42;35.53;;;29.00;;
795;SDS011;381;48.770;9.188;2022-12-11T16:43:45;39.67;;;34.77;;
795;SDS011;381;48.770;9.188;2022-12-11T16:48:54;39.23;;;32.63;;
795;SDS011;381;48.770;9.188;2022-12-11T16:53:56;39.80;;;32.47;;
795;SDS011;381;48.770;9.188;2022-12-11T16:58:59;39.20;;;31.47;;
795;SDS011;381;48.770;9.188;2022-12-11T17:04:06;42.07;;;33.50;;
795;SDS011;381;48.770;9.188;2022-12-11T17:09:17;39.27;;;32.57;;
795;SDS011;381;48.770;9.188;2022-12-11T17:14:19;40.83;;;33.23;;
795;SDS011;381;48.770;9.188;2022-12-11T17:19:25;68.23;;;42.13;;
795;SDS011;381;48.770;9.188;2022-12-11T17:24:29;34.20;;;29.57;;
795;SDS011;381;48.770;9.188;2022-12-11T17:29:31;39.23;;;34.07;;
795;SDS011;381;48.770;9.188;2022-12-11T17:34:35;42.10;;;34.37;;
795;SDS011;381;48.770;9.188;2022-12-11T17:39:37;42.30;;;34.40;;
795;SDS011;381;48.770;9.188;2022-12-11T17:44:48;44.50;;;37.53;;
795;SDS011;381;48.770;9.188;2022-12-11T17:50:08;47.50;;;38.70;;
795;SDS011;381;48.770;9.188;2022-12-11T17:55:14;41.93;;;33.40;;
795;SDS011;381;48.770;9.188;2022-12-11T18:00:26;38.37;;;31.40;;
795;SDS011;381;48.770;9.188;2022-12-11T18:05:33;39.40;;;32.40;;
795;SDS011;381;48.770;9.188;2022-12-11T18:10:41;36.97;;;31.63;;
795;SDS011;381;48.770;9.188;2022-12-11T18:21:24;39.47;;;31.50;;
795;SDS011;381;48.770;9.188;2022-12-11T18:26:27;37.70;;;31.80;;
795;SDS011;381;48.770;9.188;2022-12-11T18:31:30;37.30;;;31.27;;
795;SDS011;381;48.770;9.188;2022-12-11T18:36:33;35.97;;;31.13;;
795;SDS011;381;48.770;9.188;2022-12-11T18:41:36;39.43;;;31.63;;
795;SDS011;381;48.770;9.188;2022-12-11T18:46:41;37.20;;;30.40;;
795;SDS011;381;48.770;9.188;2022-12-11T18:51:44;41.00;;;33.03;;
795;SDS011;381;48.770;9.188;2022-12-11T18:56:46;44.07;;;34.27;;
795;SDS011;381;48.770;9.188;2022-12-11T19:01:49;38.77;;;32.10;;
795;SDS011;381;48.770;9.188;2022-12-11T19:06:52;41.70;;;34.30;;
795;SDS011;381;48.770;9.188;2022-12-11T19:11:57;40.40;;;33.13;;
795;SDS011;381;48.770;9.188;2022-12-11T19:16:59;31.70;;;24.90;;
795;SDS011;381;48.770;9.188;2022-12-11T19:22:03;41.77;;;34.33;;
795;SDS011;381;48.770;9.188;2022-12-11T19:27:06;42.07;;;34.70;;
795;SDS011;381;48.770;9.188;2022-12-11T19:32:08;40.17;;;33.60;;
795;SDS011;381;48.770;9.188;2022-12-11T19:37:15;39.80;;;34.40;;
795;SDS011;381;48.770;9.188;2022-12-11T19:42:17;38.47;;;31.70;;
795;SDS011;381;48.770;9.188;2022-12-11T19:47:19;41.93;;;33.97;;
795;SDS011;381;48.770;9.188;2022-12-11T19:52:23;42.60;;;34.27;;
795;SDS011;381;48.770;9.188;2022-12-11T19:57:25;38.40;;;32.77;;
795;SDS011;381;48.770;9.188;2022-12-11T20:02:27;42.37;;;34.80;;
795;SDS011;381;48.770;9.188;2022-12-11T20:07:31;41.03;;;34.70;;
795;SDS011;381;48.770;9.188;2022-12-11T20:12:38;51.10;;;40.77;;
795;SDS011;381;48.770;9.188;2022-12-11T20:18:00;44.37;;;37.00;;
795;SDS011;381;48.770;9.188;2022-12-11T20:23:23;45.10;;;37.33;;
795;SDS011;381;48.770;9.188;2022-12-11T20:28:29;40.80;;;34.30;;
795;SDS011;381;48.770;9.188;2022-12-11T20:33:31;46.17;;;38.20;;
795;SDS011;381;48.770;9.188;2022-12-11T20:38:35;43.63;;;36.27;;
795;SDS011;381;48.770;9.188;2022-12-11T20:43:39;48.73;;;38.27;;
795;SDS011;381;48.770;9.188;2022-12-11T20:48:42;47.40;;;40.40;;
795;SDS011;381;48.770;9.188;2022-12-11T20:53:48;43.63;;;36.37;;
795;SDS011;381;48.770;9.188;2022-12-11T20:58:57;39.27;;;33.77;;
795;SDS011;381;48.770;9.188;2022-12-11T21:04:00;38.40;;;33.67;;
795;SDS011;381;48.770;9.188;2022-12-11T21:09:05;39.00;;;33.70;;
795;SDS011;381;48.770;9.188;2022-12-11T21:14:08;38.97;;;34.50;;
795;SDS011;381;48.770;9.188;2022-12-11T21:19:11;39.70;;;34.90;;
795;SDS011;381;48.770;9.188;2022-12-11T21:24:17;39.33;;;35.13;;
795;SDS011;381;48.770;9.188;2022-12-11T21:29:21;40.23;;;33.60;;
795;SDS011;381;48.770;9.188;2022-12-11T21:34:24;37.00;;;32.83;;
795;SDS011;381;48.770;9.188;2022-12-11T21:39:27;33.30;;;29.70;;
795;SDS011;381;48.770;9.188;2022-12-11T21:44:29;34.20;;;28.33;;
795;SDS011;381;48.770;9.188;2022-12-11T21:49:31;29.23;;;26.17;;
795;SDS011;381;48.770;9.188;2022-12-11T21:54:39;30.67;;;26.93;;
795;SDS011;381;48.770;9.188;2022-12-11T21:59:41;30.80;;;27.50;;
795;SDS011;381;48.770;9.188;2022-12-11T22:04:44;33.00;;;28.27;;
795;SDS011;381;48.770;9.188;2022-12-11T22:09:48;30.37;;;27.20;;
795;SDS011;381;48.770;9.188;2022-12-11T22:14:50;31.40;;;27.50;;
795;SDS011;381;48.770;9.188;2022-12-11T22:19:52;28.80;;;25.70;;
795;SDS011;381;48.770;9.188;2022-12-11T22:24:55;30.93;;;27.53;;
795;SDS011;381;48.770;9.188;2022-12-11T22:29:58;36.60;;;31.27;;
795;SDS011;381;48.770;9.188;2022-12-11T22:35:00;34.40;;;30.70;;
795;SDS011;381;48.770;9.188;2022-12-11T22:40:04;33.80;;;30.13;;
795;SDS011;381;48.770;9.188;2022-12-11T22:45:07;38.40;;;31.77;;
795;SDS011;381;48.770;9.188;2022-12-11T22:50:11;37.70;;;33.60;;
795;SDS011;381;48.770;9.188;2022-12-11T22:55:15;33.90;;;28.93;;
795;SDS011;381;48.770;9.188;2022-12-11T23:00:20;31.43;;;27.10;;
795;SDS011;381;48.770;9.188;2022-12-11T23:05:22;34.63;;;30.90;;
795;SDS011;381;48.770;9.188;2022-12-11T23:10:27;32.70;;;28.03;;
795;SDS011;381;48.770;9.188;2022-12-11T23:15:29;34.70;;;30.50;;
795;SDS011;381;48.770;9.188;2022-12-11T23:20:31;33.37;;;28.80;;
795;SDS011;381;48.770;9.188;2022-12-11T23:25:35;30.87;;;27.50;;
795;SDS011;381;48.770;9.188;2022-12-11T23:30:40;31.63;;;27.40;;
795;SDS011;381;48.770;9.188;2022-12-11T23:35:42;32.03;;;27.80;;
795;SDS011;381;48.770;9.188;2022-12-11T23:40:47;35.50;;;29.20;;
795;SDS011;381;48.770;9.188;2022-12-11T23:45:49;34.60;;;28.03;;
795;SDS011;381;48.770;9.188;2022-12-11T23:50:56;30.90;;;27.20;;
795;SDS011;381;48.770;9.188;2022-12-11T23:56:02;34.97;;;27.70;;
